sensor_id;sensor_type;location;lat;lon;timestamp;P1;durP1;ratioP1;P2;durP2;ratioP2
20711;SDS011;10517;50.742;4.224;2022-08-03T00:01:18;2.95;;;2.33;;
20711;SDS011;10517;50.742;4.224;2022-08-03T00:03:44;2.30;;;2.10;;
20711;SDS011;10517;50.742;4.224;2022-08-03T00:06:09;2.20;;;2.00;;
20711;SDS011;10517;50.742;4.224;2022-08-03T00:08:35;2.00;;;1.90;;
20711;SDS011;10517;50.742;4.224;2022-08-03T00:11:01;3.70;;;2.30;;
20711;SDS011;10517;50.742;4.224;2022-08-03T00:13:28;2.10;;;1.95;;
20711;SDS011;10517;50.742;4.224;2022-08-03T00:15:54;2.50;;;2.30;;
20711;SDS011;10517;50.742;4.224;2022-08-03T00:18:19;2.45;;;2.10;;
20711;SDS011;10517;50.742;4.224;2022-08-03T00:20:45;3.08;;;2.40;;
20711;SDS011;10517;50.742;4.224;2022-08-03T00:23:10;3.15;;;1.90;;
20711;SDS011;10517;50.742;4.224;2022-08-03T00:25:36;5.88;;;2.50;;
20711;SDS011;10517;50.742;4.224;2022-08-03T00:28:03;4.25;;;2.30;;
20711;SDS011;10517;50.742;4.224;2022-08-03T00:30:29;2.30;;;1.95;;
20711;SDS011;10517;50.742;4.224;2022-08-03T00:32:56;2.83;;;2.22;;
20711;SDS011;10517;50.742;4.224;2022-08-03T00:35:22;5.80;;;2.08;;
20711;SDS011;10517;50.742;4.224;2022-08-03T00:37:48;3.30;;;2.10;;
20711;SDS011;10517;50.742;4.224;2022-08-03T00:40:14;2.53;;;2.13;;
20711;SDS011;10517;50.742;4.224;2022-08-03T00:45:24;6.95;;;2.58;;
20711;SDS011;10517;50.742;4.224;2022-08-03T00:47:52;2.10;;;1.90;;
20711;SDS011;10517;50.742;4.224;2022-08-03T00:50:18;8.57;;;2.13;;
20711;SDS011;10517;50.742;4.224;2022-08-03T00:52:46;2.10;;;2.00;;
20711;SDS011;10517;50.742;4.224;2022-08-03T00:55:12;2.10;;;1.85;;
20711;SDS011;10517;50.742;4.224;2022-08-03T00:57:38;2.67;;;1.95;;
20711;SDS011;10517;50.742;4.224;2022-08-03T01:00:05;2.17;;;2.08;;
20711;SDS011;10517;50.742;4.224;2022-08-03T01:02:31;3.13;;;2.20;;
20711;SDS011;10517;50.742;4.224;2022-08-03T01:04:57;2.45;;;2.25;;
20711;SDS011;10517;50.742;4.224;2022-08-03T01:07:32;4.85;;;2.20;;
20711;SDS011;10517;50.742;4.224;2022-08-03T01:10:12;5.18;;;3.45;;
20711;SDS011;10517;50.742;4.224;2022-08-03T01:24:54;4.65;;;2.38;;
20711;SDS011;10517;50.742;4.224;2022-08-03T01:27:47;2.90;;;2.60;;
20711;SDS011;10517;50.742;4.224;2022-08-03T01:30:22;2.50;;;2.40;;
20711;SDS011;10517;50.742;4.224;2022-08-03T01:32:59;6.38;;;2.65;;
20711;SDS011;10517;50.742;4.224;2022-08-03T01:38:21;4.53;;;2.47;;
20711;SDS011;10517;50.742;4.224;2022-08-03T01:40:54;4.10;;;2.47;;
20711;SDS011;10517;50.742;4.224;2022-08-03T01:43:22;3.05;;;2.10;;
20711;SDS011;10517;50.742;4.224;2022-08-03T01:45:52;2.35;;;2.25;;
20711;SDS011;10517;50.742;4.224;2022-08-03T01:48:20;6.90;;;2.92;;
20711;SDS011;10517;50.742;4.224;2022-08-03T01:50:45;2.53;;;2.15;;
20711;SDS011;10517;50.742;4.224;2022-08-03T01:53:13;2.17;;;2.08;;
20711;SDS011;10517;50.742;4.224;2022-08-03T01:55:40;2.40;;;2.30;;
20711;SDS011;10517;50.742;4.224;2022-08-03T01:58:09;3.80;;;2.05;;
20711;SDS011;10517;50.742;4.224;2022-08-03T02:00:38;2.20;;;2.03;;
20711;SDS011;10517;50.742;4.224;2022-08-03T02:03:05;2.97;;;2.00;;
20711;SDS011;10517;50.742;4.224;2022-08-03T02:05:32;2.03;;;1.92;;
20711;SDS011;10517;50.742;4.224;2022-08-03T02:07:59;4.45;;;2.20;;
20711;SDS011;10517;50.742;4.224;2022-08-03T02:10:27;5.25;;;1.83;;
20711;SDS011;10517;50.742;4.224;2022-08-03T02:12:56;2.10;;;2.00;;
20711;SDS011;10517;50.742;4.224;2022-08-03T02:15:25;2.85;;;2.00;;
20711;SDS011;10517;50.742;4.224;2022-08-03T02:17:52;4.63;;;2.33;;
20711;SDS011;10517;50.742;4.224;2022-08-03T02:20:21;2.47;;;2.33;;
20711;SDS011;10517;50.742;4.224;2022-08-03T02:22:47;2.22;;;2.13;;
20711;SDS011;10517;50.742;4.224;2022-08-03T02:25:14;1.90;;;1.80;;
20711;SDS011;10517;50.742;4.224;2022-08-03T02:27:59;3.13;;;2.83;;
20711;SDS011;10517;50.742;4.224;2022-08-03T02:30:32;2.00;;;1.90;;
20711;SDS011;10517;50.742;4.224;2022-08-03T02:33:04;4.40;;;2.10;;
20711;SDS011;10517;50.742;4.224;2022-08-03T02:35:34;2.28;;;2.13;;
20711;SDS011;10517;50.742;4.224;2022-08-03T02:38:03;4.13;;;2.08;;
20711;SDS011;10517;50.742;4.224;2022-08-03T02:40:31;2.30;;;2.03;;
20711;SDS011;10517;50.742;4.224;2022-08-03T02:42:58;2.17;;;2.05;;
20711;SDS011;10517;50.742;4.224;2022-08-03T02:45:27;2.45;;;2.22;;
20711;SDS011;10517;50.742;4.224;2022-08-03T02:47:57;2.78;;;2.10;;
20711;SDS011;10517;50.742;4.224;2022-08-03T02:50:26;2.60;;;2.40;;
20711;SDS011;10517;50.742;4.224;2022-08-03T02:52:54;3.83;;;2.33;;
20711;SDS011;10517;50.742;4.224;2022-08-03T02:55:21;8.32;;;3.38;;
20711;SDS011;10517;50.742;4.224;2022-08-03T02:57:50;2.50;;;2.40;;
20711;SDS011;10517;50.742;4.224;2022-08-03T03:00:16;4.20;;;2.40;;
20711;SDS011;10517;50.742;4.224;2022-08-03T03:02:42;3.08;;;2.72;;
20711;SDS011;10517;50.742;4.224;2022-08-03T03:05:09;2.65;;;2.45;;
20711;SDS011;10517;50.742;4.224;2022-08-03T03:07:35;2.22;;;2.13;;
20711;SDS011;10517;50.742;4.224;2022-08-03T03:10:02;2.53;;;2.35;;
20711;SDS011;10517;50.742;4.224;2022-08-03T03:12:28;2.67;;;2.50;;
20711;SDS011;10517;50.742;4.224;2022-08-03T03:14:56;2.60;;;2.35;;
20711;SDS011;10517;50.742;4.224;2022-08-03T03:17:21;2.60;;;2.45;;
20711;SDS011;10517;50.742;4.224;2022-08-03T03:19:48;2.30;;;2.10;;
20711;SDS011;10517;50.742;4.224;2022-08-03T03:22:15;2.42;;;2.25;;
20711;SDS011;10517;50.742;4.224;2022-08-03T03:24:41;7.13;;;3.15;;
20711;SDS011;10517;50.742;4.224;2022-08-03T03:27:08;4.35;;;2.40;;
20711;SDS011;10517;50.742;4.224;2022-08-03T03:29:34;2.72;;;2.53;;
20711;SDS011;10517;50.742;4.224;2022-08-03T03:32:01;2.55;;;2.35;;
20711;SDS011;10517;50.742;4.224;2022-08-03T03:34:28;4.47;;;2.53;;
20711;SDS011;10517;50.742;4.224;2022-08-03T03:36:54;3.30;;;2.80;;
20711;SDS011;10517;50.742;4.224;2022-08-03T03:39:20;6.72;;;3.55;;
20711;SDS011;10517;50.742;4.224;2022-08-03T03:41:46;3.00;;;2.80;;
20711;SDS011;10517;50.742;4.224;2022-08-03T03:44:11;2.63;;;2.42;;
20711;SDS011;10517;50.742;4.224;2022-08-03T03:46:37;2.53;;;2.33;;
20711;SDS011;10517;50.742;4.224;2022-08-03T03:49:06;4.13;;;2.60;;
20711;SDS011;10517;50.742;4.224;2022-08-03T03:51:32;3.20;;;2.33;;
20711;SDS011;10517;50.742;4.224;2022-08-03T03:53:59;2.80;;;2.50;;
20711;SDS011;10517;50.742;4.224;2022-08-03T03:56:27;3.55;;;2.58;;
20711;SDS011;10517;50.742;4.224;2022-08-03T03:58:53;8.77;;;2.70;;
20711;SDS011;10517;50.742;4.224;2022-08-03T04:01:18;4.20;;;2.30;;
20711;SDS011;10517;50.742;4.224;2022-08-03T04:03:44;4.20;;;2.53;;
20711;SDS011;10517;50.742;4.224;2022-08-03T04:06:10;2.13;;;2.03;;
20711;SDS011;10517;50.742;4.224;2022-08-03T04:08:55;2.38;;;2.20;;
20711;SDS011;10517;50.742;4.224;2022-08-03T04:11:42;2.92;;;2.50;;
20711;SDS011;10517;50.742;4.224;2022-08-03T04:14:24;6.97;;;2.38;;
20711;SDS011;10517;50.742;4.224;2022-08-03T04:16:54;6.68;;;2.85;;
20711;SDS011;10517;50.742;4.224;2022-08-03T04:19:31;12.88;;;2.65;;
20711;SDS011;10517;50.742;4.224;2022-08-03T04:22:02;3.47;;;2.72;;
20711;SDS011;10517;50.742;4.224;2022-08-03T04:24:34;3.35;;;2.30;;
20711;SDS011;10517;50.742;4.224;2022-08-03T04:27:08;2.80;;;2.60;;
20711;SDS011;10517;50.742;4.224;2022-08-03T04:29:37;2.70;;;2.50;;
20711;SDS011;10517;50.742;4.224;2022-08-03T04:32:06;2.50;;;2.30;;
20711;SDS011;10517;50.742;4.224;2022-08-03T04:34:32;8.73;;;2.60;;
20711;SDS011;10517;50.742;4.224;2022-08-03T04:37:00;6.30;;;2.40;;
20711;SDS011;10517;50.742;4.224;2022-08-03T04:39:30;3.10;;;2.83;;
20711;SDS011;10517;50.742;4.224;2022-08-03T04:41:57;3.03;;;2.70;;
20711;SDS011;10517;50.742;4.224;2022-08-03T04:44:26;2.88;;;2.67;;
20711;SDS011;10517;50.742;4.224;2022-08-03T04:46:53;2.65;;;2.45;;
20711;SDS011;10517;50.742;4.224;2022-08-03T04:49:20;5.20;;;2.83;;
20711;SDS011;10517;50.742;4.224;2022-08-03T04:51:47;3.22;;;2.78;;
20711;SDS011;10517;50.742;4.224;2022-08-03T04:54:13;2.80;;;2.60;;
20711;SDS011;10517;50.742;4.224;2022-08-03T04:56:40;3.58;;;3.13;;
20711;SDS011;10517;50.742;4.224;2022-08-03T04:59:07;3.45;;;2.75;;
20711;SDS011;10517;50.742;4.224;2022-08-03T05:01:33;3.33;;;3.03;;
20711;SDS011;10517;50.742;4.224;2022-08-03T05:03:59;5.80;;;2.60;;
20711;SDS011;10517;50.742;4.224;2022-08-03T05:06:24;4.00;;;2.60;;
20711;SDS011;10517;50.742;4.224;2022-08-03T05:08:50;2.33;;;2.13;;
20711;SDS011;10517;50.742;4.224;2022-08-03T05:11:16;3.15;;;2.33;;
20711;SDS011;10517;50.742;4.224;2022-08-03T05:13:42;3.80;;;2.63;;
20711;SDS011;10517;50.742;4.224;2022-08-03T05:16:12;2.40;;;2.30;;
20711;SDS011;10517;50.742;4.224;2022-08-03T05:18:38;7.30;;;2.88;;
20711;SDS011;10517;50.742;4.224;2022-08-03T05:21:04;5.63;;;2.42;;
20711;SDS011;10517;50.742;4.224;2022-08-03T05:23:30;2.92;;;2.42;;
20711;SDS011;10517;50.742;4.224;2022-08-03T05:25:55;8.73;;;2.58;;
20711;SDS011;10517;50.742;4.224;2022-08-03T05:28:21;2.30;;;2.20;;
20711;SDS011;10517;50.742;4.224;2022-08-03T05:30:47;9.20;;;2.70;;
20711;SDS011;10517;50.742;4.224;2022-08-03T05:33:13;8.55;;;3.60;;
20711;SDS011;10517;50.742;4.224;2022-08-03T05:35:39;3.15;;;2.95;;
20711;SDS011;10517;50.742;4.224;2022-08-03T05:38:04;2.80;;;2.50;;
20711;SDS011;10517;50.742;4.224;2022-08-03T05:40:31;8.27;;;3.65;;
20711;SDS011;10517;50.742;4.224;2022-08-03T05:42:56;3.08;;;2.80;;
20711;SDS011;10517;50.742;4.224;2022-08-03T05:45:23;3.35;;;2.72;;
20711;SDS011;10517;50.742;4.224;2022-08-03T05:47:49;6.65;;;2.85;;
20711;SDS011;10517;50.742;4.224;2022-08-03T05:50:15;4.38;;;2.78;;
20711;SDS011;10517;50.742;4.224;2022-08-03T05:52:41;3.70;;;2.30;;
20711;SDS011;10517;50.742;4.224;2022-08-03T05:55:08;9.93;;;2.65;;
20711;SDS011;10517;50.742;4.224;2022-08-03T05:57:34;4.15;;;2.60;;
20711;SDS011;10517;50.742;4.224;2022-08-03T06:00:01;5.05;;;2.60;;
20711;SDS011;10517;50.742;4.224;2022-08-03T06:02:31;5.63;;;2.70;;
20711;SDS011;10517;50.742;4.224;2022-08-03T06:04:57;10.23;;;2.47;;
20711;SDS011;10517;50.742;4.224;2022-08-03T06:07:22;5.07;;;2.92;;
20711;SDS011;10517;50.742;4.224;2022-08-03T06:09:48;3.92;;;2.35;;
20711;SDS011;10517;50.742;4.224;2022-08-03T06:12:14;4.43;;;2.15;;
20711;SDS011;10517;50.742;4.224;2022-08-03T06:14:40;4.95;;;2.72;;
20711;SDS011;10517;50.742;4.224;2022-08-03T06:17:05;9.93;;;2.97;;
20711;SDS011;10517;50.742;4.224;2022-08-03T06:19:31;3.78;;;3.05;;
20711;SDS011;10517;50.742;4.224;2022-08-03T06:21:56;5.47;;;2.25;;
20711;SDS011;10517;50.742;4.224;2022-08-03T06:24:22;11.43;;;2.50;;
20711;SDS011;10517;50.742;4.224;2022-08-03T06:26:48;2.70;;;2.47;;
20711;SDS011;10517;50.742;4.224;2022-08-03T06:29:13;3.63;;;2.38;;
20711;SDS011;10517;50.742;4.224;2022-08-03T06:31:39;10.60;;;2.55;;
20711;SDS011;10517;50.742;4.224;2022-08-03T06:34:05;8.75;;;2.97;;
20711;SDS011;10517;50.742;4.224;2022-08-03T06:36:30;7.55;;;2.70;;
20711;SDS011;10517;50.742;4.224;2022-08-03T06:38:57;4.93;;;2.30;;
20711;SDS011;10517;50.742;4.224;2022-08-03T06:41:23;2.58;;;2.38;;
20711;SDS011;10517;50.742;4.224;2022-08-03T06:43:49;5.65;;;2.55;;
20711;SDS011;10517;50.742;4.224;2022-08-03T06:46:15;4.35;;;2.83;;
20711;SDS011;10517;50.742;4.224;2022-08-03T06:48:40;2.58;;;2.10;;
20711;SDS011;10517;50.742;4.224;2022-08-03T06:51:06;3.72;;;2.70;;
20711;SDS011;10517;50.742;4.224;2022-08-03T06:53:32;3.22;;;2.40;;
20711;SDS011;10517;50.742;4.224;2022-08-03T06:55:58;4.88;;;2.25;;
20711;SDS011;10517;50.742;4.224;2022-08-03T06:58:23;5.07;;;2.45;;
20711;SDS011;10517;50.742;4.224;2022-08-03T07:00:49;3.10;;;2.00;;
20711;SDS011;10517;50.742;4.224;2022-08-03T07:03:15;3.80;;;2.17;;
20711;SDS011;10517;50.742;4.224;2022-08-03T07:05:41;2.50;;;2.30;;
20711;SDS011;10517;50.742;4.224;2022-08-03T07:08:07;2.53;;;2.08;;
20711;SDS011;10517;50.742;4.224;2022-08-03T07:10:33;2.80;;;2.00;;
20711;SDS011;10517;50.742;4.224;2022-08-03T07:12:59;4.03;;;2.65;;
20711;SDS011;10517;50.742;4.224;2022-08-03T07:15:24;7.15;;;2.50;;
20711;SDS011;10517;50.742;4.224;2022-08-03T07:17:50;3.60;;;2.75;;
20711;SDS011;10517;50.742;4.224;2022-08-03T07:20:16;1.98;;;1.88;;
20711;SDS011;10517;50.742;4.224;2022-08-03T07:22:42;4.50;;;2.30;;
20711;SDS011;10517;50.742;4.224;2022-08-03T07:25:08;4.72;;;2.38;;
20711;SDS011;10517;50.742;4.224;2022-08-03T07:27:35;3.53;;;2.40;;
20711;SDS011;10517;50.742;4.224;2022-08-03T07:30:01;2.13;;;2.03;;
20711;SDS011;10517;50.742;4.224;2022-08-03T07:32:29;3.00;;;2.63;;
20711;SDS011;10517;50.742;4.224;2022-08-03T07:34:55;5.10;;;2.40;;
20711;SDS011;10517;50.742;4.224;2022-08-03T07:37:21;2.63;;;2.42;;
20711;SDS011;10517;50.742;4.224;2022-08-03T07:39:47;7.30;;;2.60;;
20711;SDS011;10517;50.742;4.224;2022-08-03T07:42:12;6.28;;;2.47;;
20711;SDS011;10517;50.742;4.224;2022-08-03T07:44:38;5.85;;;2.75;;
20711;SDS011;10517;50.742;4.224;2022-08-03T07:47:04;8.00;;;2.47;;
20711;SDS011;10517;50.742;4.224;2022-08-03T07:49:30;4.00;;;2.92;;
20711;SDS011;10517;50.742;4.224;2022-08-03T07:51:55;8.52;;;2.60;;
20711;SDS011;10517;50.742;4.224;2022-08-03T07:54:39;5.00;;;3.40;;
20711;SDS011;10517;50.742;4.224;2022-08-03T07:57:05;3.42;;;2.42;;
20711;SDS011;10517;50.742;4.224;2022-08-03T07:59:30;4.80;;;3.30;;
20711;SDS011;10517;50.742;4.224;2022-08-03T08:01:56;5.10;;;2.92;;
20711;SDS011;10517;50.742;4.224;2022-08-03T08:04:22;3.25;;;2.80;;
20711;SDS011;10517;50.742;4.224;2022-08-03T08:06:47;2.47;;;2.13;;
20711;SDS011;10517;50.742;4.224;2022-08-03T08:09:13;5.03;;;3.10;;
20711;SDS011;10517;50.742;4.224;2022-08-03T08:11:39;8.32;;;2.63;;
20711;SDS011;10517;50.742;4.224;2022-08-03T08:14:04;3.05;;;2.00;;
20711;SDS011;10517;50.742;4.224;2022-08-03T08:16:31;7.43;;;2.60;;
20711;SDS011;10517;50.742;4.224;2022-08-03T08:18:57;4.55;;;2.83;;
20711;SDS011;10517;50.742;4.224;2022-08-03T08:21:22;3.25;;;2.33;;
20711;SDS011;10517;50.742;4.224;2022-08-03T08:23:48;2.22;;;2.10;;
20711;SDS011;10517;50.742;4.224;2022-08-03T08:26:14;5.10;;;2.60;;
20711;SDS011;10517;50.742;4.224;2022-08-03T08:28:39;2.67;;;2.10;;
20711;SDS011;10517;50.742;4.224;2022-08-03T08:31:05;2.15;;;2.05;;
20711;SDS011;10517;50.742;4.224;2022-08-03T08:33:31;12.43;;;2.95;;
20711;SDS011;10517;50.742;4.224;2022-08-03T08:35:58;3.28;;;2.67;;
20711;SDS011;10517;50.742;4.224;2022-08-03T08:38:24;2.67;;;2.40;;
20711;SDS011;10517;50.742;4.224;2022-08-03T08:40:50;4.28;;;2.17;;
20711;SDS011;10517;50.742;4.224;2022-08-03T08:43:15;2.80;;;2.17;;
20711;SDS011;10517;50.742;4.224;2022-08-03T08:45:41;4.13;;;2.15;;
20711;SDS011;10517;50.742;4.224;2022-08-03T08:48:08;4.45;;;2.28;;
20711;SDS011;10517;50.742;4.224;2022-08-03T08:50:36;3.28;;;2.45;;
20711;SDS011;10517;50.742;4.224;2022-08-03T08:53:03;4.53;;;2.65;;
20711;SDS011;10517;50.742;4.224;2022-08-03T08:55:31;5.68;;;2.55;;
20711;SDS011;10517;50.742;4.224;2022-08-03T08:58:01;3.33;;;2.30;;
20711;SDS011;10517;50.742;4.224;2022-08-03T09:00:30;6.38;;;2.65;;
20711;SDS011;10517;50.742;4.224;2022-08-03T09:02:56;7.75;;;2.20;;
20711;SDS011;10517;50.742;4.224;2022-08-03T09:05:22;2.17;;;2.05;;
20711;SDS011;10517;50.742;4.224;2022-08-03T09:07:48;2.47;;;2.28;;
20711;SDS011;10517;50.742;4.224;2022-08-03T09:10:14;2.22;;;2.13;;
20711;SDS011;10517;50.742;4.224;2022-08-03T09:12:47;3.38;;;2.20;;
20711;SDS011;10517;50.742;4.224;2022-08-03T09:15:17;8.85;;;3.13;;
20711;SDS011;10517;50.742;4.224;2022-08-03T09:17:43;5.07;;;2.53;;
20711;SDS011;10517;50.742;4.224;2022-08-03T09:20:09;3.40;;;2.55;;
20711;SDS011;10517;50.742;4.224;2022-08-03T09:22:35;3.15;;;2.88;;
20711;SDS011;10517;50.742;4.224;2022-08-03T09:25:16;4.13;;;2.88;;
20711;SDS011;10517;50.742;4.224;2022-08-03T09:27:42;3.30;;;3.00;;
20711;SDS011;10517;50.742;4.224;2022-08-03T09:30:15;4.30;;;2.60;;
20711;SDS011;10517;50.742;4.224;2022-08-03T09:32:42;2.42;;;2.33;;
20711;SDS011;10517;50.742;4.224;2022-08-03T09:35:10;2.50;;;2.38;;
20711;SDS011;10517;50.742;4.224;2022-08-03T09:37:39;2.67;;;2.50;;
20711;SDS011;10517;50.742;4.224;2022-08-03T09:40:05;2.25;;;2.15;;
20711;SDS011;10517;50.742;4.224;2022-08-03T09:42:31;4.63;;;2.63;;
20711;SDS011;10517;50.742;4.224;2022-08-03T09:45:02;3.20;;;2.60;;
20711;SDS011;10517;50.742;4.224;2022-08-03T09:47:29;2.70;;;2.50;;
20711;SDS011;10517;50.742;4.224;2022-08-03T09:49:58;2.78;;;2.42;;
20711;SDS011;10517;50.742;4.224;2022-08-03T09:52:36;3.28;;;2.10;;
20711;SDS011;10517;50.742;4.224;2022-08-03T09:55:10;2.30;;;2.20;;
20711;SDS011;10517;50.742;4.224;2022-08-03T09:57:37;2.60;;;2.50;;
20711;SDS011;10517;50.742;4.224;2022-08-03T10:00:08;3.72;;;2.75;;
20711;SDS011;10517;50.742;4.224;2022-08-03T10:02:36;3.13;;;2.63;;
20711;SDS011;10517;50.742;4.224;2022-08-03T10:05:02;3.28;;;2.17;;
20711;SDS011;10517;50.742;4.224;2022-08-03T10:07:29;2.88;;;2.53;;
20711;SDS011;10517;50.742;4.224;2022-08-03T10:10:01;2.47;;;2.30;;
20711;SDS011;10517;50.742;4.224;2022-08-03T10:12:27;2.42;;;2.33;;
20711;SDS011;10517;50.742;4.224;2022-08-03T10:14:53;3.08;;;2.38;;
20711;SDS011;10517;50.742;4.224;2022-08-03T10:17:19;2.40;;;2.30;;
20711;SDS011;10517;50.742;4.224;2022-08-03T10:19:46;2.53;;;2.28;;
20711;SDS011;10517;50.742;4.224;2022-08-03T10:22:13;2.40;;;2.20;;
20711;SDS011;10517;50.742;4.224;2022-08-03T10:24:45;2.65;;;2.50;;
20711;SDS011;10517;50.742;4.224;2022-08-03T10:27:18;2.45;;;2.30;;
20711;SDS011;10517;50.742;4.224;2022-08-03T10:29:46;2.20;;;2.10;;
20711;SDS011;10517;50.742;4.224;2022-08-03T10:32:24;2.63;;;2.53;;
20711;SDS011;10517;50.742;4.224;2022-08-03T10:35:14;2.33;;;2.22;;
20711;SDS011;10517;50.742;4.224;2022-08-03T10:37:43;5.70;;;2.50;;
20711;SDS011;10517;50.742;4.224;2022-08-03T10:40:14;2.78;;;2.50;;
20711;SDS011;10517;50.742;4.224;2022-08-03T10:42:44;2.40;;;2.35;;
20711;SDS011;10517;50.742;4.224;2022-08-03T10:45:17;2.40;;;2.40;;
20711;SDS011;10517;50.742;4.224;2022-08-03T10:47:51;2.80;;;2.70;;
20711;SDS011;10517;50.742;4.224;2022-08-03T10:50:19;3.42;;;3.22;;
20711;SDS011;10517;50.742;4.224;2022-08-03T10:52:57;2.78;;;2.58;;
20711;SDS011;10517;50.742;4.224;2022-08-03T10:55:38;6.65;;;3.05;;
20711;SDS011;10517;50.742;4.224;2022-08-03T11:01:03;3.28;;;3.17;;
20711;SDS011;10517;50.742;4.224;2022-08-03T11:03:30;6.35;;;3.15;;
20711;SDS011;10517;50.742;4.224;2022-08-03T11:06:30;2.95;;;2.75;;
20711;SDS011;10517;50.742;4.224;2022-08-03T11:11:34;2.53;;;2.42;;
20711;SDS011;10517;50.742;4.224;2022-08-03T11:14:08;2.97;;;2.78;;
20711;SDS011;10517;50.742;4.224;2022-08-03T11:17:05;5.38;;;2.55;;
20711;SDS011;10517;50.742;4.224;2022-08-03T11:19:47;2.67;;;2.50;;
20711;SDS011;10517;50.742;4.224;2022-08-03T11:22:15;3.10;;;3.00;;
20711;SDS011;10517;50.742;4.224;2022-08-03T11:35:11;3.08;;;2.42;;
20711;SDS011;10517;50.742;4.224;2022-08-03T11:40:32;3.38;;;3.22;;
20711;SDS011;10517;50.742;4.224;2022-08-03T11:43:00;2.80;;;2.70;;
20711;SDS011;10517;50.742;4.224;2022-08-03T11:45:26;3.13;;;2.92;;
20711;SDS011;10517;50.742;4.224;2022-08-03T11:47:52;6.28;;;3.00;;
20711;SDS011;10517;50.742;4.224;2022-08-03T11:50:19;2.95;;;2.85;;
20711;SDS011;10517;50.742;4.224;2022-08-03T11:52:46;2.88;;;2.78;;
20711;SDS011;10517;50.742;4.224;2022-08-03T11:55:13;3.30;;;3.00;;
20711;SDS011;10517;50.742;4.224;2022-08-03T11:57:40;3.58;;;3.30;;
20711;SDS011;10517;50.742;4.224;2022-08-03T12:00:25;4.50;;;2.60;;
20711;SDS011;10517;50.742;4.224;2022-08-03T12:02:57;7.95;;;3.60;;
20711;SDS011;10517;50.742;4.224;2022-08-03T12:05:37;3.15;;;2.70;;
20711;SDS011;10517;50.742;4.224;2022-08-03T12:08:08;5.65;;;2.70;;
20711;SDS011;10517;50.742;4.224;2022-08-03T12:10:35;3.92;;;2.92;;
20711;SDS011;10517;50.742;4.224;2022-08-03T12:13:02;3.33;;;3.13;;
20711;SDS011;10517;50.742;4.224;2022-08-03T12:15:30;3.13;;;2.88;;
20711;SDS011;10517;50.742;4.224;2022-08-03T12:18:00;2.80;;;2.70;;
20711;SDS011;10517;50.742;4.224;2022-08-03T12:20:27;2.92;;;2.58;;
20711;SDS011;10517;50.742;4.224;2022-08-03T12:23:00;2.70;;;2.60;;
20711;SDS011;10517;50.742;4.224;2022-08-03T12:25:28;3.13;;;2.88;;
20711;SDS011;10517;50.742;4.224;2022-08-03T12:27:55;2.80;;;2.60;;
20711;SDS011;10517;50.742;4.224;2022-08-03T12:30:33;3.00;;;2.72;;
20711;SDS011;10517;50.742;4.224;2022-08-03T12:33:09;2.67;;;2.58;;
20711;SDS011;10517;50.742;4.224;2022-08-03T12:36:08;3.13;;;2.92;;
20711;SDS011;10517;50.742;4.224;2022-08-03T12:38:35;2.80;;;2.70;;
20711;SDS011;10517;50.742;4.224;2022-08-03T12:43:29;2.90;;;2.80;;
20711;SDS011;10517;50.742;4.224;2022-08-03T12:46:08;3.00;;;2.83;;
20711;SDS011;10517;50.742;4.224;2022-08-03T12:49:01;2.72;;;2.63;;
20711;SDS011;10517;50.742;4.224;2022-08-03T12:51:32;2.90;;;2.80;;
20711;SDS011;10517;50.742;4.224;2022-08-03T12:54:01;2.97;;;2.88;;
20711;SDS011;10517;50.742;4.224;2022-08-03T12:56:27;3.20;;;3.00;;
20711;SDS011;10517;50.742;4.224;2022-08-03T12:58:53;3.38;;;3.15;;
20711;SDS011;10517;50.742;4.224;2022-08-03T13:01:19;4.50;;;2.88;;
20711;SDS011;10517;50.742;4.224;2022-08-03T13:03:48;2.85;;;2.75;;
20711;SDS011;10517;50.742;4.224;2022-08-03T13:06:24;2.80;;;2.70;;
20711;SDS011;10517;50.742;4.224;2022-08-03T13:09:04;3.15;;;2.95;;
20711;SDS011;10517;50.742;4.224;2022-08-03T13:11:30;3.65;;;3.45;;
20711;SDS011;10517;50.742;4.224;2022-08-03T13:13:56;3.08;;;2.88;;
20711;SDS011;10517;50.742;4.224;2022-08-03T13:16:22;5.55;;;2.45;;
20711;SDS011;10517;50.742;4.224;2022-08-03T13:18:49;2.70;;;2.50;;
20711;SDS011;10517;50.742;4.224;2022-08-03T13:21:16;2.70;;;2.60;;
20711;SDS011;10517;50.742;4.224;2022-08-03T13:23:43;3.65;;;3.05;;
20711;SDS011;10517;50.742;4.224;2022-08-03T13:26:09;2.92;;;2.80;;
20711;SDS011;10517;50.742;4.224;2022-08-03T13:28:35;3.15;;;3.05;;
20711;SDS011;10517;50.742;4.224;2022-08-03T13:31:02;6.40;;;3.10;;
20711;SDS011;10517;50.742;4.224;2022-08-03T13:33:27;3.40;;;3.10;;
20711;SDS011;10517;50.742;4.224;2022-08-03T13:35:53;3.00;;;2.85;;
20711;SDS011;10517;50.742;4.224;2022-08-03T13:38:19;4.03;;;3.72;;
20711;SDS011;10517;50.742;4.224;2022-08-03T13:40:45;3.33;;;3.22;;
20711;SDS011;10517;50.742;4.224;2022-08-03T13:43:10;3.42;;;3.33;;
20711;SDS011;10517;50.742;4.224;2022-08-03T13:45:36;3.58;;;3.38;;
20711;SDS011;10517;50.742;4.224;2022-08-03T13:48:02;4.57;;;4.38;;
20711;SDS011;10517;50.742;4.224;2022-08-03T13:50:28;3.58;;;3.38;;
20711;SDS011;10517;50.742;4.224;2022-08-03T13:52:55;4.20;;;3.88;;
20711;SDS011;10517;50.742;4.224;2022-08-03T13:55:21;3.72;;;3.63;;
20711;SDS011;10517;50.742;4.224;2022-08-03T13:57:47;3.72;;;3.42;;
20711;SDS011;10517;50.742;4.224;2022-08-03T14:00:13;3.95;;;3.75;;
20711;SDS011;10517;50.742;4.224;2022-08-03T14:02:40;4.45;;;4.07;;
20711;SDS011;10517;50.742;4.224;2022-08-03T14:05:06;3.63;;;3.53;;
20711;SDS011;10517;50.742;4.224;2022-08-03T14:07:32;3.67;;;3.58;;
20711;SDS011;10517;50.742;4.224;2022-08-03T14:09:58;4.35;;;4.15;;
20711;SDS011;10517;50.742;4.224;2022-08-03T14:12:25;4.80;;;4.60;;
20711;SDS011;10517;50.742;4.224;2022-08-03T14:14:51;4.63;;;4.43;;
20711;SDS011;10517;50.742;4.224;2022-08-03T14:17:17;4.20;;;4.10;;
20711;SDS011;10517;50.742;4.224;2022-08-03T14:19:42;4.90;;;4.65;;
20711;SDS011;10517;50.742;4.224;2022-08-03T14:22:08;5.13;;;4.93;;
20711;SDS011;10517;50.742;4.224;2022-08-03T14:24:34;4.97;;;4.75;;
20711;SDS011;10517;50.742;4.224;2022-08-03T14:26:59;5.90;;;5.70;;
20711;SDS011;10517;50.742;4.224;2022-08-03T14:29:25;5.30;;;4.90;;
20711;SDS011;10517;50.742;4.224;2022-08-03T14:31:50;5.30;;;5.10;;
20711;SDS011;10517;50.742;4.224;2022-08-03T14:34:17;5.93;;;5.47;;
20711;SDS011;10517;50.742;4.224;2022-08-03T14:36:43;4.90;;;4.70;;
20711;SDS011;10517;50.742;4.224;2022-08-03T14:39:11;4.82;;;4.63;;
20711;SDS011;10517;50.742;4.224;2022-08-03T14:41:37;5.15;;;4.95;;
20711;SDS011;10517;50.742;4.224;2022-08-03T14:44:02;5.43;;;5.13;;
20711;SDS011;10517;50.742;4.224;2022-08-03T14:46:28;4.65;;;4.45;;
20711;SDS011;10517;50.742;4.224;2022-08-03T14:48:55;4.97;;;4.55;;
20711;SDS011;10517;50.742;4.224;2022-08-03T14:51:20;4.35;;;4.15;;
20711;SDS011;10517;50.742;4.224;2022-08-03T14:53:46;9.38;;;4.55;;
20711;SDS011;10517;50.742;4.224;2022-08-03T14:56:11;4.97;;;4.72;;
20711;SDS011;10517;50.742;4.224;2022-08-03T14:58:37;4.15;;;3.95;;
20711;SDS011;10517;50.742;4.224;2022-08-03T15:01:02;4.25;;;4.05;;
20711;SDS011;10517;50.742;4.224;2022-08-03T15:03:28;4.18;;;3.97;;
20711;SDS011;10517;50.742;4.224;2022-08-03T15:05:54;4.25;;;3.90;;
20711;SDS011;10517;50.742;4.224;2022-08-03T15:08:21;4.00;;;3.80;;
20711;SDS011;10517;50.742;4.224;2022-08-03T15:10:48;3.85;;;3.75;;
20711;SDS011;10517;50.742;4.224;2022-08-03T15:13:14;4.28;;;3.97;;
20711;SDS011;10517;50.742;4.224;2022-08-03T15:15:41;4.20;;;4.00;;
20711;SDS011;10517;50.742;4.224;2022-08-03T15:18:06;4.75;;;4.45;;
20711;SDS011;10517;50.742;4.224;2022-08-03T15:20:32;4.57;;;4.38;;
20711;SDS011;10517;50.742;4.224;2022-08-03T15:22:58;4.35;;;4.15;;
20711;SDS011;10517;50.742;4.224;2022-08-03T15:25:23;4.30;;;4.10;;
20711;SDS011;10517;50.742;4.224;2022-08-03T15:27:50;5.38;;;4.97;;
20711;SDS011;10517;50.742;4.224;2022-08-03T15:30:19;5.28;;;4.85;;
20711;SDS011;10517;50.742;4.224;2022-08-03T15:32:44;5.47;;;5.18;;